sensor_id;sensor_type;location;lat;lon;timestamp;P1;durP1;ratioP1;P2;durP2;ratioP2
18336;SDS011;9294;51.106;7.028;2022-10-22T00:01:35;2.17;;;2.08;;
18336;SDS011;9294;51.106;7.028;2022-10-22T00:04:03;1.85;;;1.85;;
18336;SDS011;9294;51.106;7.028;2022-10-22T00:06:30;2.00;;;1.90;;
18336;SDS011;9294;51.106;7.028;2022-10-22T00:08:56;1.63;;;1.60;;
18336;SDS011;9294;51.106;7.028;2022-10-22T00:11:23;2.15;;;2.05;;
18336;SDS011;9294;51.106;7.028;2022-10-22T00:13:50;4.25;;;1.85;;
18336;SDS011;9294;51.106;7.028;2022-10-22T00:16:17;2.20;;;2.00;;
18336;SDS011;9294;51.106;7.028;2022-10-22T00:18:45;2.33;;;2.13;;
18336;SDS011;9294;51.106;7.028;2022-10-22T00:21:12;1.80;;;1.80;;
18336;SDS011;9294;51.106;7.028;2022-10-22T00:23:39;1.88;;;1.77;;
18336;SDS011;9294;51.106;7.028;2022-10-22T00:26:06;2.17;;;2.08;;
18336;SDS011;9294;51.106;7.028;2022-10-22T00:28:33;1.63;;;1.63;;
18336;SDS011;9294;51.106;7.028;2022-10-22T00:31:00;2.25;;;2.15;;
18336;SDS011;9294;51.106;7.028;2022-10-22T00:33:27;2.10;;;2.00;;
18336;SDS011;9294;51.106;7.028;2022-10-22T00:35:56;1.92;;;1.85;;
18336;SDS011;9294;51.106;7.028;2022-10-22T00:38:23;1.70;;;1.70;;
18336;SDS011;9294;51.106;7.028;2022-10-22T00:40:50;1.40;;;1.40;;
18336;SDS011;9294;51.106;7.028;2022-10-22T00:43:17;1.92;;;1.85;;
18336;SDS011;9294;51.106;7.028;2022-10-22T00:45:44;1.50;;;1.50;;
18336;SDS011;9294;51.106;7.028;2022-10-22T00:48:12;1.52;;;1.52;;
18336;SDS011;9294;51.106;7.028;2022-10-22T00:50:42;2.42;;;1.98;;
18336;SDS011;9294;51.106;7.028;2022-10-22T00:53:14;1.88;;;1.83;;
18336;SDS011;9294;51.106;7.028;2022-10-22T00:55:44;1.52;;;1.50;;
18336;SDS011;9294;51.106;7.028;2022-10-22T00:58:12;1.95;;;1.85;;
18336;SDS011;9294;51.106;7.028;2022-10-22T01:00:40;1.70;;;1.70;;
18336;SDS011;9294;51.106;7.028;2022-10-22T01:03:07;1.92;;;1.90;;
18336;SDS011;9294;51.106;7.028;2022-10-22T01:05:37;1.70;;;1.60;;
18336;SDS011;9294;51.106;7.028;2022-10-22T01:08:07;1.83;;;1.73;;
18336;SDS011;9294;51.106;7.028;2022-10-22T01:10:47;1.83;;;1.73;;
18336;SDS011;9294;51.106;7.028;2022-10-22T01:13:24;2.03;;;1.92;;
18336;SDS011;9294;51.106;7.028;2022-10-22T01:16:03;1.70;;;1.70;;
18336;SDS011;9294;51.106;7.028;2022-10-22T01:18:36;1.88;;;1.77;;
18336;SDS011;9294;51.106;7.028;2022-10-22T01:21:13;1.70;;;1.70;;
18336;SDS011;9294;51.106;7.028;2022-10-22T01:23:55;2.00;;;1.90;;
18336;SDS011;9294;51.106;7.028;2022-10-22T01:27:08;2.30;;;2.10;;
18336;SDS011;9294;51.106;7.028;2022-10-22T01:29:43;1.55;;;1.55;;
18336;SDS011;9294;51.106;7.028;2022-10-22T01:32:14;1.85;;;1.75;;
18336;SDS011;9294;51.106;7.028;2022-10-22T01:34:44;2.05;;;1.88;;
18336;SDS011;9294;51.106;7.028;2022-10-22T01:37:15;1.98;;;1.88;;
18336;SDS011;9294;51.106;7.028;2022-10-22T01:39:44;1.45;;;1.45;;
18336;SDS011;9294;51.106;7.028;2022-10-22T01:42:12;1.60;;;1.60;;
18336;SDS011;9294;51.106;7.028;2022-10-22T01:44:39;1.40;;;1.40;;
18336;SDS011;9294;51.106;7.028;2022-10-22T01:47:13;1.70;;;1.70;;
18336;SDS011;9294;51.106;7.028;2022-10-22T01:49:50;1.75;;;1.75;;
18336;SDS011;9294;51.106;7.028;2022-10-22T01:52:32;1.50;;;1.50;;
18336;SDS011;9294;51.106;7.028;2022-10-22T01:55:11;1.92;;;1.90;;
18336;SDS011;9294;51.106;7.028;2022-10-22T01:57:49;1.77;;;1.67;;
18336;SDS011;9294;51.106;7.028;2022-10-22T02:00:24;2.15;;;2.05;;
18336;SDS011;9294;51.106;7.028;2022-10-22T02:02:54;1.90;;;1.80;;
18336;SDS011;9294;51.106;7.028;2022-10-22T02:05:27;1.98;;;1.88;;
18336;SDS011;9294;51.106;7.028;2022-10-22T02:07:58;1.75;;;1.75;;
18336;SDS011;9294;51.106;7.028;2022-10-22T02:10:28;1.98;;;1.85;;
18336;SDS011;9294;51.106;7.028;2022-10-22T02:12:56;1.88;;;1.77;;
18336;SDS011;9294;51.106;7.028;2022-10-22T02:15:25;1.50;;;1.50;;
18336;SDS011;9294;51.106;7.028;2022-10-22T02:17:56;1.73;;;1.73;;
18336;SDS011;9294;51.106;7.028;2022-10-22T02:20:25;1.73;;;1.73;;
18336;SDS011;9294;51.106;7.028;2022-10-22T02:22:54;1.60;;;1.60;;
18336;SDS011;9294;51.106;7.028;2022-10-22T02:25:22;1.90;;;1.80;;
18336;SDS011;9294;51.106;7.028;2022-10-22T02:27:53;1.83;;;1.73;;
18336;SDS011;9294;51.106;7.028;2022-10-22T02:30:26;2.00;;;1.90;;
18336;SDS011;9294;51.106;7.028;2022-10-22T02:32:57;1.45;;;1.45;;
18336;SDS011;9294;51.106;7.028;2022-10-22T02:35:28;1.50;;;1.50;;
18336;SDS011;9294;51.106;7.028;2022-10-22T02:37:56;1.88;;;1.88;;
18336;SDS011;9294;51.106;7.028;2022-10-22T02:40:24;1.60;;;1.52;;
18336;SDS011;9294;51.106;7.028;2022-10-22T02:42:53;1.80;;;1.80;;
18336;SDS011;9294;51.106;7.028;2022-10-22T02:45:19;1.63;;;1.63;;
18336;SDS011;9294;51.106;7.028;2022-10-22T02:47:47;2.03;;;1.77;;
18336;SDS011;9294;51.106;7.028;2022-10-22T02:50:15;1.75;;;1.70;;
18336;SDS011;9294;51.106;7.028;2022-10-22T02:52:42;1.85;;;1.80;;
18336;SDS011;9294;51.106;7.028;2022-10-22T02:55:09;1.60;;;1.60;;
18336;SDS011;9294;51.106;7.028;2022-10-22T02:57:36;1.83;;;1.73;;
18336;SDS011;9294;51.106;7.028;2022-10-22T03:00:03;1.85;;;1.85;;
18336;SDS011;9294;51.106;7.028;2022-10-22T03:02:30;1.80;;;1.80;;
18336;SDS011;9294;51.106;7.028;2022-10-22T03:04:57;1.52;;;1.52;;
18336;SDS011;9294;51.106;7.028;2022-10-22T03:07:25;1.33;;;1.30;;
18336;SDS011;9294;51.106;7.028;2022-10-22T03:09:52;1.77;;;1.73;;
18336;SDS011;9294;51.106;7.028;2022-10-22T03:12:18;1.60;;;1.60;;
18336;SDS011;9294;51.106;7.028;2022-10-22T03:14:45;1.80;;;1.70;;
18336;SDS011;9294;51.106;7.028;2022-10-22T03:17:12;1.67;;;1.67;;
18336;SDS011;9294;51.106;7.028;2022-10-22T03:19:39;1.77;;;1.67;;
18336;SDS011;9294;51.106;7.028;2022-10-22T03:22:06;1.67;;;1.60;;
18336;SDS011;9294;51.106;7.028;2022-10-22T03:24:38;1.90;;;1.90;;
18336;SDS011;9294;51.106;7.028;2022-10-22T03:27:07;1.52;;;1.48;;
18336;SDS011;9294;51.106;7.028;2022-10-22T03:29:34;1.48;;;1.48;;
18336;SDS011;9294;51.106;7.028;2022-10-22T03:32:03;1.58;;;1.58;;
18336;SDS011;9294;51.106;7.028;2022-10-22T03:34:30;2.40;;;1.50;;
18336;SDS011;9294;51.106;7.028;2022-10-22T03:36:57;1.80;;;1.70;;
18336;SDS011;9294;51.106;7.028;2022-10-22T03:39:26;1.98;;;1.88;;
18336;SDS011;9294;51.106;7.028;2022-10-22T03:41:56;1.90;;;1.80;;
18336;SDS011;9294;51.106;7.028;2022-10-22T03:44:23;1.80;;;1.75;;
18336;SDS011;9294;51.106;7.028;2022-10-22T03:46:50;1.63;;;1.63;;
18336;SDS011;9294;51.106;7.028;2022-10-22T03:49:17;1.65;;;1.65;;
18336;SDS011;9294;51.106;7.028;2022-10-22T03:51:43;2.00;;;1.90;;
18336;SDS011;9294;51.106;7.028;2022-10-22T03:54:10;1.65;;;1.65;;
18336;SDS011;9294;51.106;7.028;2022-10-22T03:56:37;2.10;;;2.00;;
18336;SDS011;9294;51.106;7.028;2022-10-22T03:59:05;1.90;;;1.80;;
18336;SDS011;9294;51.106;7.028;2022-10-22T04:01:32;1.63;;;1.63;;
18336;SDS011;9294;51.106;7.028;2022-10-22T04:03:59;1.85;;;1.80;;
18336;SDS011;9294;51.106;7.028;2022-10-22T04:06:25;1.40;;;1.40;;
18336;SDS011;9294;51.106;7.028;2022-10-22T04:08:54;1.70;;;1.70;;
18336;SDS011;9294;51.106;7.028;2022-10-22T04:11:20;1.70;;;1.70;;
18336;SDS011;9294;51.106;7.028;2022-10-22T04:13:47;2.95;;;1.60;;
18336;SDS011;9294;51.106;7.028;2022-10-22T04:16:16;1.73;;;1.73;;
18336;SDS011;9294;51.106;7.028;2022-10-22T04:18:44;1.75;;;1.65;;
18336;SDS011;9294;51.106;7.028;2022-10-22T04:21:13;1.65;;;1.63;;
18336;SDS011;9294;51.106;7.028;2022-10-22T04:23:43;1.67;;;1.67;;
18336;SDS011;9294;51.106;7.028;2022-10-22T04:26:10;1.70;;;1.70;;
18336;SDS011;9294;51.106;7.028;2022-10-22T04:28:37;1.75;;;1.67;;
18336;SDS011;9294;51.106;7.028;2022-10-22T04:31:06;2.00;;;1.90;;
18336;SDS011;9294;51.106;7.028;2022-10-22T04:33:35;1.40;;;1.38;;
18336;SDS011;9294;51.106;7.028;2022-10-22T04:36:05;1.85;;;1.85;;
18336;SDS011;9294;51.106;7.028;2022-10-22T04:38:33;1.67;;;1.63;;
18336;SDS011;9294;51.106;7.028;2022-10-22T04:41:06;1.77;;;1.65;;
18336;SDS011;9294;51.106;7.028;2022-10-22T04:43:34;1.80;;;1.70;;
18336;SDS011;9294;51.106;7.028;2022-10-22T04:46:00;1.80;;;1.80;;
18336;SDS011;9294;51.106;7.028;2022-10-22T04:48:27;1.40;;;1.40;;
18336;SDS011;9294;51.106;7.028;2022-10-22T04:50:56;2.00;;;1.90;;
18336;SDS011;9294;51.106;7.028;2022-10-22T04:53:24;1.98;;;1.88;;
18336;SDS011;9294;51.106;7.028;2022-10-22T04:55:51;1.92;;;1.83;;
18336;SDS011;9294;51.106;7.028;2022-10-22T04:58:18;1.50;;;1.50;;
18336;SDS011;9294;51.106;7.028;2022-10-22T05:00:45;1.60;;;1.60;;
18336;SDS011;9294;51.106;7.028;2022-10-22T05:03:12;1.65;;;1.65;;
18336;SDS011;9294;51.106;7.028;2022-10-22T05:05:38;2.17;;;1.98;;
18336;SDS011;9294;51.106;7.028;2022-10-22T05:08:07;2.13;;;2.03;;
18336;SDS011;9294;51.106;7.028;2022-10-22T05:10:33;2.00;;;1.90;;
18336;SDS011;9294;51.106;7.028;2022-10-22T05:13:00;1.77;;;1.77;;
18336;SDS011;9294;51.106;7.028;2022-10-22T05:15:27;1.75;;;1.75;;
18336;SDS011;9294;51.106;7.028;2022-10-22T05:17:53;1.67;;;1.58;;
18336;SDS011;9294;51.106;7.028;2022-10-22T05:20:20;2.08;;;1.98;;
18336;SDS011;9294;51.106;7.028;2022-10-22T05:22:47;1.73;;;1.73;;
18336;SDS011;9294;51.106;7.028;2022-10-22T05:25:15;1.92;;;1.90;;
18336;SDS011;9294;51.106;7.028;2022-10-22T05:27:42;1.65;;;1.65;;
18336;SDS011;9294;51.106;7.028;2022-10-22T05:30:09;2.10;;;2.00;;
18336;SDS011;9294;51.106;7.028;2022-10-22T05:32:36;1.75;;;1.75;;
18336;SDS011;9294;51.106;7.028;2022-10-22T05:35:03;2.17;;;2.08;;
18336;SDS011;9294;51.106;7.028;2022-10-22T05:37:30;1.73;;;1.73;;
18336;SDS011;9294;51.106;7.028;2022-10-22T05:39:56;3.65;;;2.38;;
18336;SDS011;9294;51.106;7.028;2022-10-22T05:42:24;2.67;;;2.47;;
18336;SDS011;9294;51.106;7.028;2022-10-22T05:44:56;1.70;;;1.60;;
18336;SDS011;9294;51.106;7.028;2022-10-22T05:47:22;1.83;;;1.80;;
18336;SDS011;9294;51.106;7.028;2022-10-22T05:49:49;1.67;;;1.67;;
18336;SDS011;9294;51.106;7.028;2022-10-22T05:52:16;1.90;;;1.80;;
18336;SDS011;9294;51.106;7.028;2022-10-22T05:54:42;1.50;;;1.50;;
18336;SDS011;9294;51.106;7.028;2022-10-22T05:57:09;1.73;;;1.70;;
18336;SDS011;9294;51.106;7.028;2022-10-22T05:59:37;1.90;;;1.80;;
18336;SDS011;9294;51.106;7.028;2022-10-22T06:02:04;1.42;;;1.42;;
18336;SDS011;9294;51.106;7.028;2022-10-22T06:04:31;1.75;;;1.75;;
18336;SDS011;9294;51.106;7.028;2022-10-22T06:06:58;4.45;;;2.00;;
18336;SDS011;9294;51.106;7.028;2022-10-22T06:09:25;4.68;;;2.50;;
18336;SDS011;9294;51.106;7.028;2022-10-22T06:11:54;2.75;;;1.92;;
18336;SDS011;9294;51.106;7.028;2022-10-22T06:14:21;2.92;;;2.30;;
18336;SDS011;9294;51.106;7.028;2022-10-22T06:16:50;2.17;;;2.08;;
18336;SDS011;9294;51.106;7.028;2022-10-22T06:19:18;2.72;;;2.42;;
18336;SDS011;9294;51.106;7.028;2022-10-22T06:21:46;2.35;;;2.10;;
18336;SDS011;9294;51.106;7.028;2022-10-22T06:24:13;4.80;;;2.30;;
18336;SDS011;9294;51.106;7.028;2022-10-22T06:26:40;3.70;;;2.47;;
18336;SDS011;9294;51.106;7.028;2022-10-22T06:29:07;2.35;;;2.25;;
18336;SDS011;9294;51.106;7.028;2022-10-22T06:31:34;2.50;;;2.17;;
18336;SDS011;9294;51.106;7.028;2022-10-22T06:34:03;3.88;;;2.92;;
18336;SDS011;9294;51.106;7.028;2022-10-22T06:36:30;2.25;;;2.05;;
18336;SDS011;9294;51.106;7.028;2022-10-22T06:38:57;3.95;;;2.17;;
18336;SDS011;9294;51.106;7.028;2022-10-22T06:41:24;3.03;;;2.42;;
18336;SDS011;9294;51.106;7.028;2022-10-22T06:43:52;2.70;;;2.00;;
18336;SDS011;9294;51.106;7.028;2022-10-22T06:46:20;3.05;;;2.80;;
18336;SDS011;9294;51.106;7.028;2022-10-22T06:48:47;2.47;;;2.30;;
18336;SDS011;9294;51.106;7.028;2022-10-22T06:51:16;2.33;;;2.08;;
18336;SDS011;9294;51.106;7.028;2022-10-22T06:53:45;2.10;;;2.00;;
18336;SDS011;9294;51.106;7.028;2022-10-22T06:56:12;2.40;;;2.20;;
18336;SDS011;9294;51.106;7.028;2022-10-22T06:58:40;2.60;;;2.47;;
18336;SDS011;9294;51.106;7.028;2022-10-22T07:01:08;2.50;;;2.40;;
18336;SDS011;9294;51.106;7.028;2022-10-22T07:03:36;3.30;;;2.30;;
18336;SDS011;9294;51.106;7.028;2022-10-22T07:06:04;2.75;;;2.55;;
18336;SDS011;9294;51.106;7.028;2022-10-22T07:08:34;3.10;;;2.70;;
18336;SDS011;9294;51.106;7.028;2022-10-22T07:11:04;5.50;;;2.38;;
18336;SDS011;9294;51.106;7.028;2022-10-22T07:13:32;4.93;;;2.28;;
18336;SDS011;9294;51.106;7.028;2022-10-22T07:15:59;4.10;;;2.65;;
18336;SDS011;9294;51.106;7.028;2022-10-22T07:18:26;3.90;;;2.30;;
18336;SDS011;9294;51.106;7.028;2022-10-22T07:20:52;3.78;;;2.60;;
18336;SDS011;9294;51.106;7.028;2022-10-22T07:23:19;4.00;;;2.35;;
18336;SDS011;9294;51.106;7.028;2022-10-22T07:25:47;6.15;;;2.45;;
18336;SDS011;9294;51.106;7.028;2022-10-22T07:28:14;3.40;;;2.30;;
18336;SDS011;9294;51.106;7.028;2022-10-22T07:30:41;3.05;;;2.38;;
18336;SDS011;9294;51.106;7.028;2022-10-22T07:33:07;2.85;;;2.10;;
18336;SDS011;9294;51.106;7.028;2022-10-22T07:35:35;2.90;;;2.55;;
18336;SDS011;9294;51.106;7.028;2022-10-22T07:38:02;3.00;;;2.35;;
18336;SDS011;9294;51.106;7.028;2022-10-22T07:40:29;3.72;;;2.42;;
18336;SDS011;9294;51.106;7.028;2022-10-22T07:42:57;6.85;;;3.30;;
18336;SDS011;9294;51.106;7.028;2022-10-22T07:45:24;5.10;;;2.75;;
18336;SDS011;9294;51.106;7.028;2022-10-22T07:47:51;10.52;;;3.67;;
18336;SDS011;9294;51.106;7.028;2022-10-22T07:50:18;4.15;;;2.80;;
18336;SDS011;9294;51.106;7.028;2022-10-22T07:52:44;11.40;;;3.25;;
18336;SDS011;9294;51.106;7.028;2022-10-22T07:55:11;4.35;;;3.13;;
18336;SDS011;9294;51.106;7.028;2022-10-22T07:57:38;4.90;;;2.63;;
18336;SDS011;9294;51.106;7.028;2022-10-22T08:00:07;11.98;;;4.20;;
18336;SDS011;9294;51.106;7.028;2022-10-22T08:02:34;11.38;;;3.75;;
18336;SDS011;9294;51.106;7.028;2022-10-22T08:05:01;8.57;;;3.50;;
18336;SDS011;9294;51.106;7.028;2022-10-22T08:07:28;16.20;;;3.05;;
18336;SDS011;9294;51.106;7.028;2022-10-22T08:09:55;7.18;;;3.30;;
18336;SDS011;9294;51.106;7.028;2022-10-22T08:12:21;7.03;;;3.03;;
18336;SDS011;9294;51.106;7.028;2022-10-22T08:14:48;7.90;;;3.50;;
18336;SDS011;9294;51.106;7.028;2022-10-22T08:17:16;8.23;;;3.63;;
18336;SDS011;9294;51.106;7.028;2022-10-22T08:19:43;7.93;;;3.10;;
18336;SDS011;9294;51.106;7.028;2022-10-22T08:22:10;5.50;;;2.92;;
18336;SDS011;9294;51.106;7.028;2022-10-22T08:24:36;3.75;;;3.08;;
18336;SDS011;9294;51.106;7.028;2022-10-22T08:27:03;6.30;;;3.03;;
18336;SDS011;9294;51.106;7.028;2022-10-22T08:29:30;8.55;;;3.05;;
18336;SDS011;9294;51.106;7.028;2022-10-22T08:31:57;4.20;;;3.10;;
18336;SDS011;9294;51.106;7.028;2022-10-22T08:34:25;6.10;;;3.25;;
18336;SDS011;9294;51.106;7.028;2022-10-22T08:36:51;4.38;;;2.72;;
18336;SDS011;9294;51.106;7.028;2022-10-22T08:39:18;5.55;;;2.75;;
18336;SDS011;9294;51.106;7.028;2022-10-22T08:41:47;7.10;;;3.20;;
18336;SDS011;9294;51.106;7.028;2022-10-22T08:44:30;4.43;;;2.50;;
18336;SDS011;9294;51.106;7.028;2022-10-22T08:47:15;3.10;;;2.80;;
18336;SDS011;9294;51.106;7.028;2022-10-22T08:49:54;3.90;;;3.17;;
18336;SDS011;9294;51.106;7.028;2022-10-22T08:52:21;4.20;;;3.20;;
18336;SDS011;9294;51.106;7.028;2022-10-22T08:54:50;2.97;;;2.75;;
18336;SDS011;9294;51.106;7.028;2022-10-22T08:57:21;3.60;;;2.45;;
18336;SDS011;9294;51.106;7.028;2022-10-22T09:00:04;4.70;;;2.78;;
18336;SDS011;9294;51.106;7.028;2022-10-22T09:02:36;3.15;;;2.95;;
18336;SDS011;9294;51.106;7.028;2022-10-22T09:05:17;4.20;;;3.28;;
18336;SDS011;9294;51.106;7.028;2022-10-22T09:07:51;3.65;;;2.70;;
18336;SDS011;9294;51.106;7.028;2022-10-22T09:10:19;2.70;;;2.50;;
18336;SDS011;9294;51.106;7.028;2022-10-22T09:12:50;3.10;;;2.50;;
18336;SDS011;9294;51.106;7.028;2022-10-22T09:15:17;2.40;;;2.20;;
18336;SDS011;9294;51.106;7.028;2022-10-22T09:17:49;3.15;;;2.42;;
18336;SDS011;9294;51.106;7.028;2022-10-22T09:20:27;3.63;;;2.80;;
18336;SDS011;9294;51.106;7.028;2022-10-22T09:23:04;5.78;;;2.88;;
18336;SDS011;9294;51.106;7.028;2022-10-22T09:25:46;3.90;;;2.80;;
18336;SDS011;9294;51.106;7.028;2022-10-22T09:28:15;2.60;;;2.40;;
18336;SDS011;9294;51.106;7.028;2022-10-22T09:30:42;3.45;;;2.67;;
18336;SDS011;9294;51.106;7.028;2022-10-22T09:33:11;3.42;;;2.42;;
18336;SDS011;9294;51.106;7.028;2022-10-22T09:35:45;3.53;;;2.70;;
18336;SDS011;9294;51.106;7.028;2022-10-22T09:38:16;3.47;;;2.83;;
18336;SDS011;9294;51.106;7.028;2022-10-22T09:40:46;2.70;;;2.20;;
18336;SDS011;9294;51.106;7.028;2022-10-22T09:43:14;2.60;;;2.50;;
18336;SDS011;9294;51.106;7.028;2022-10-22T09:45:42;4.05;;;2.70;;
18336;SDS011;9294;51.106;7.028;2022-10-22T09:48:17;2.72;;;2.63;;
18336;SDS011;9294;51.106;7.028;2022-10-22T09:50:56;2.85;;;2.58;;
18336;SDS011;9294;51.106;7.028;2022-10-22T09:53:29;2.97;;;2.83;;
18336;SDS011;9294;51.106;7.028;2022-10-22T09:55:58;2.42;;;2.33;;
18336;SDS011;9294;51.106;7.028;2022-10-22T09:58:39;4.60;;;3.00;;
18336;SDS011;9294;51.106;7.028;2022-10-22T10:01:06;2.83;;;2.60;;
18336;SDS011;9294;51.106;7.028;2022-10-22T10:03:33;2.50;;;2.38;;
18336;SDS011;9294;51.106;7.028;2022-10-22T10:06:01;3.00;;;2.80;;
18336;SDS011;9294;51.106;7.028;2022-10-22T10:08:31;2.53;;;2.40;;
18336;SDS011;9294;51.106;7.028;2022-10-22T10:10:58;2.10;;;2.00;;
18336;SDS011;9294;51.106;7.028;2022-10-22T10:13:30;2.65;;;2.45;;
18336;SDS011;9294;51.106;7.028;2022-10-22T10:16:09;3.50;;;2.83;;
18336;SDS011;9294;51.106;7.028;2022-10-22T10:18:54;2.60;;;2.40;;
18336;SDS011;9294;51.106;7.028;2022-10-22T10:21:33;2.30;;;2.20;;
18336;SDS011;9294;51.106;7.028;2022-10-22T10:24:11;2.20;;;2.10;;
18336;SDS011;9294;51.106;7.028;2022-10-22T10:26:47;2.33;;;2.17;;
18336;SDS011;9294;51.106;7.028;2022-10-22T10:29:22;2.28;;;2.17;;
18336;SDS011;9294;51.106;7.028;2022-10-22T10:32:02;2.33;;;2.22;;
18336;SDS011;9294;51.106;7.028;2022-10-22T10:34:41;3.05;;;2.80;;
18336;SDS011;9294;51.106;7.028;2022-10-22T10:37:16;2.22;;;2.13;;
18336;SDS011;9294;51.106;7.028;2022-10-22T10:39:53;2.90;;;2.70;;
18336;SDS011;9294;51.106;7.028;2022-10-22T10:42:34;2.42;;;2.33;;
18336;SDS011;9294;51.106;7.028;2022-10-22T10:45:08;2.95;;;2.33;;
18336;SDS011;9294;51.106;7.028;2022-10-22T10:47:50;3.25;;;3.00;;
18336;SDS011;9294;51.106;7.028;2022-10-22T10:50:37;2.40;;;2.30;;
18336;SDS011;9294;51.106;7.028;2022-10-22T10:53:19;2.60;;;2.40;;
18336;SDS011;9294;51.106;7.028;2022-10-22T10:55:53;2.75;;;2.55;;
18336;SDS011;9294;51.106;7.028;2022-10-22T10:58:29;2.45;;;2.35;;
18336;SDS011;9294;51.106;7.028;2022-10-22T11:01:08;2.25;;;2.15;;
18336;SDS011;9294;51.106;7.028;2022-10-22T11:06:48;2.15;;;2.05;;
18336;SDS011;9294;51.106;7.028;2022-10-22T11:09:20;2.90;;;2.70;;
18336;SDS011;9294;51.106;7.028;2022-10-22T11:11:50;2.58;;;2.38;;
18336;SDS011;9294;51.106;7.028;2022-10-22T11:14:22;2.97;;;2.88;;
18336;SDS011;9294;51.106;7.028;2022-10-22T11:16:58;2.13;;;2.03;;
18336;SDS011;9294;51.106;7.028;2022-10-22T11:19:29;2.55;;;2.45;;
18336;SDS011;9294;51.106;7.028;2022-10-22T11:22:02;2.10;;;2.00;;
18336;SDS011;9294;51.106;7.028;2022-10-22T11:24:36;2.33;;;2.20;;
18336;SDS011;9294;51.106;7.028;2022-10-22T11:27:09;2.08;;;2.00;;
18336;SDS011;9294;51.106;7.028;2022-10-22T11:29:45;2.88;;;2.67;;
18336;SDS011;9294;51.106;7.028;2022-10-22T11:32:16;2.40;;;2.15;;
18336;SDS011;9294;51.106;7.028;2022-10-22T11:34:45;2.40;;;2.30;;
18336;SDS011;9294;51.106;7.028;2022-10-22T11:37:14;2.58;;;2.45;;
18336;SDS011;9294;51.106;7.028;2022-10-22T11:39:44;2.55;;;2.33;;
18336;SDS011;9294;51.106;7.028;2022-10-22T11:42:16;2.25;;;2.15;;
18336;SDS011;9294;51.106;7.028;2022-10-22T11:44:45;2.47;;;2.28;;
18336;SDS011;9294;51.106;7.028;2022-10-22T11:47:25;2.35;;;2.25;;
18336;SDS011;9294;51.106;7.028;2022-10-22T11:49:54;2.63;;;2.42;;
18336;SDS011;9294;51.106;7.028;2022-10-22T11:52:25;2.30;;;2.20;;
18336;SDS011;9294;51.106;7.028;2022-10-22T11:55:26;2.38;;;2.20;;
18336;SDS011;9294;51.106;7.028;2022-10-22T11:58:32;2.40;;;2.20;;
18336;SDS011;9294;51.106;7.028;2022-10-22T12:01:16;2.63;;;2.42;;
18336;SDS011;9294;51.106;7.028;2022-10-22T12:03:52;1.85;;;1.85;;
18336;SDS011;9294;51.106;7.028;2022-10-22T12:06:48;2.00;;;1.90;;
18336;SDS011;9294;51.106;7.028;2022-10-22T12:09:22;2.05;;;2.03;;
18336;SDS011;9294;51.106;7.028;2022-10-22T12:11:52;2.35;;;2.25;;
18336;SDS011;9294;51.106;7.028;2022-10-22T12:14:20;2.00;;;2.00;;
18336;SDS011;9294;51.106;7.028;2022-10-22T12:16:51;2.20;;;2.10;;
18336;SDS011;9294;51.106;7.028;2022-10-22T12:19:23;2.10;;;2.00;;
18336;SDS011;9294;51.106;7.028;2022-10-22T12:21:53;2.63;;;1.88;;
18336;SDS011;9294;51.106;7.028;2022-10-22T12:24:21;2.45;;;2.35;;
18336;SDS011;9294;51.106;7.028;2022-10-22T12:26:49;1.80;;;1.80;;
18336;SDS011;9294;51.106;7.028;2022-10-22T12:29:18;2.22;;;2.03;;
18336;SDS011;9294;51.106;7.028;2022-10-22T12:31:47;2.08;;;1.98;;
18336;SDS011;9294;51.106;7.028;2022-10-22T12:34:15;2.35;;;2.22;;
18336;SDS011;9294;51.106;7.028;2022-10-22T12:36:43;1.88;;;1.88;;
18336;SDS011;9294;51.106;7.028;2022-10-22T12:39:13;2.10;;;2.00;;
18336;SDS011;9294;51.106;7.028;2022-10-22T12:41:41;2.40;;;2.30;;
18336;SDS011;9294;51.106;7.028;2022-10-22T12:44:10;2.55;;;2.35;;
18336;SDS011;9294;51.106;7.028;2022-10-22T12:46:39;1.77;;;1.77;;
18336;SDS011;9294;51.106;7.028;2022-10-22T12:49:07;1.70;;;1.60;;
18336;SDS011;9294;51.106;7.028;2022-10-22T12:51:39;2.03;;;1.90;;
18336;SDS011;9294;51.106;7.028;2022-10-22T12:54:06;2.35;;;2.25;;
18336;SDS011;9294;51.106;7.028;2022-10-22T12:56:38;2.08;;;1.98;;
18336;SDS011;9294;51.106;7.028;2022-10-22T12:59:06;2.08;;;1.98;;
18336;SDS011;9294;51.106;7.028;2022-10-22T13:01:41;2.10;;;2.00;;
18336;SDS011;9294;51.106;7.028;2022-10-22T13:04:17;2.00;;;1.92;;
18336;SDS011;9294;51.106;7.028;2022-10-22T13:06:46;1.92;;;1.77;;
18336;SDS011;9294;51.106;7.028;2022-10-22T13:09:15;1.98;;;1.88;;
18336;SDS011;9294;51.106;7.028;2022-10-22T13:11:47;2.30;;;2.20;;
18336;SDS011;9294;51.106;7.028;2022-10-22T13:14:19;2.20;;;2.10;;
18336;SDS011;9294;51.106;7.028;2022-10-22T13:17:08;1.90;;;1.80;;
18336;SDS011;9294;51.106;7.028;2022-10-22T13:19:45;1.90;;;1.90;;
18336;SDS011;9294;51.106;7.028;2022-10-22T13:22:30;2.05;;;1.95;;
18336;SDS011;9294;51.106;7.028;2022-10-22T13:25:19;1.65;;;1.65;;
18336;SDS011;9294;51.106;7.028;2022-10-22T13:27:48;1.98;;;1.98;;
18336;SDS011;9294;51.106;7.028;2022-10-22T13:30:19;2.05;;;1.95;;
18336;SDS011;9294;51.106;7.028;2022-10-22T13:32:48;1.92;;;1.83;;
18336;SDS011;9294;51.106;7.028;2022-10-22T13:35:18;2.47;;;1.98;;
18336;SDS011;9294;51.106;7.028;2022-10-22T13:37:47;1.38;;;1.38;;
18336;SDS011;9294;51.106;7.028;2022-10-22T13:40:14;2.00;;;1.90;;
18336;SDS011;9294;51.106;7.028;2022-10-22T13:42:41;1.90;;;1.80;;
18336;SDS011;9294;51.106;7.028;2022-10-22T13:45:08;2.28;;;2.17;;
18336;SDS011;9294;51.106;7.028;2022-10-22T13:47:36;2.00;;;1.85;;
18336;SDS011;9294;51.106;7.028;2022-10-22T13:50:03;1.90;;;1.90;;
18336;SDS011;9294;51.106;7.028;2022-10-22T13:52:39;1.70;;;1.70;;
18336;SDS011;9294;51.106;7.028;2022-10-22T13:55:11;2.05;;;1.92;;
18336;SDS011;9294;51.106;7.028;2022-10-22T13:57:42;1.95;;;1.85;;
18336;SDS011;9294;51.106;7.028;2022-10-22T14:00:11;1.73;;;1.73;;
18336;SDS011;9294;51.106;7.028;2022-10-22T14:02:40;1.50;;;1.50;;
18336;SDS011;9294;51.106;7.028;2022-10-22T14:05:07;1.83;;;1.73;;
18336;SDS011;9294;51.106;7.028;2022-10-22T14:07:35;1.67;;;1.67;;
18336;SDS011;9294;51.106;7.028;2022-10-22T14:10:05;2.03;;;1.95;;
18336;SDS011;9294;51.106;7.028;2022-10-22T14:12:40;1.90;;;1.80;;
18336;SDS011;9294;51.106;7.028;2022-10-22T14:15:07;1.30;;;1.30;;
18336;SDS011;9294;51.106;7.028;2022-10-22T14:17:35;2.05;;;1.63;;
18336;SDS011;9294;51.106;7.028;2022-10-22T14:20:04;1.80;;;1.70;;
18336;SDS011;9294;51.106;7.028;2022-10-22T14:22:31;1.98;;;1.88;;
18336;SDS011;9294;51.106;7.028;2022-10-22T14:24:58;2.00;;;1.90;;
18336;SDS011;9294;51.106;7.028;2022-10-22T14:27:25;1.70;;;1.70;;
18336;SDS011;9294;51.106;7.028;2022-10-22T14:29:52;1.58;;;1.58;;
18336;SDS011;9294;51.106;7.028;2022-10-22T14:32:18;1.92;;;1.90;;
18336;SDS011;9294;51.106;7.028;2022-10-22T14:34:45;1.70;;;1.60;;
18336;SDS011;9294;51.106;7.028;2022-10-22T14:37:15;1.55;;;1.55;;
18336;SDS011;9294;51.106;7.028;2022-10-22T14:39:43;1.63;;;1.63;;
18336;SDS011;9294;51.106;7.028;2022-10-22T14:42:16;1.50;;;1.50;;
18336;SDS011;9294;51.106;7.028;2022-10-22T14:44:43;1.90;;;1.90;;
18336;SDS011;9294;51.106;7.028;2022-10-22T14:47:10;1.88;;;1.77;;
18336;SDS011;9294;51.106;7.028;2022-10-22T14:49:36;1.90;;;1.80;;
18336;SDS011;9294;51.106;7.028;2022-10-22T14:52:03;2.05;;;1.95;;
18336;SDS011;9294;51.106;7.028;2022-10-22T14:54:31;1.60;;;1.60;;
18336;SDS011;9294;51.106;7.028;2022-10-22T14:56:59;1.65;;;1.65;;
18336;SDS011;9294;51.106;7.028;2022-10-22T14:59:26;1.88;;;1.80;;
18336;SDS011;9294;51.106;7.028;2022-10-22T15:01:52;1.55;;;1.55;;
18336;SDS011;9294;51.106;7.028;2022-10-22T15:04:19;1.67;;;1.67;;
18336;SDS011;9294;51.106;7.028;2022-10-22T15:06:46;1.50;;;1.50;;
18336;SDS011;9294;51.106;7.028;2022-10-22T15:09:13;1.58;;;1.48;;
18336;SDS011;9294;51.106;7.028;2022-10-22T15:11:41;1.60;;;1.60;;
18336;SDS011;9294;51.106;7.028;2022-10-22T15:14:08;1.63;;;1.63;;
18336;SDS011;9294;51.106;7.028;2022-10-22T15:16:35;1.80;;;1.80;;
18336;SDS011;9294;51.106;7.028;2022-10-22T15:19:01;1.65;;;1.63;;
18336;SDS011;9294;51.106;7.028;2022-10-22T15:21:28;1.70;;;1.70;;